Latest Weather Observations for Mardie

IDW60801

Issued at 11:32 pm WST Sunday 26 April 2015 (issued every 30 minutes, with the page automatically refreshed every 10 minutes)

About weather observations | Map of weather stations | Latest weather observations for WA | Other Formats
Station Details ID: 005008 Name: MARDIE Lat: -21.19 Lon: 115.98 Height: 11.0 m
Data from the previous 72 hours. | See also: Recent months at Mardie
Date/Time
WST
Temp
°C
App
Temp
°C
Dew
Point
Rel
Hum
%
Delta-T
°C
Wind Press
QNH
hPa
Press
MSL
hPa
Rain
since 9 am
mm
Dir
 
Spd
km/h
Gust
km/h
Spd
kts
Gust
kts
26/11:30pm 26.5 24.7 9.4 34 9.4 E 9 11 5 6 1015.5 1015.5 0.0
26/11:00pm 26.8 25.0 9.6 34 9.5 E 9 11 5 6 1015.9 1015.9 0.0
26/10:30pm 26.6 25.3 9.9 35 9.3 SE 7 9 4 5 1016.2 1016.2 0.0
26/10:00pm 27.1 25.6 9.0 32 9.9 SE 7 11 4 6 1016.2 1016.2 0.0
26/09:30pm 27.5 24.7 8.4 30 10.4 SE 13 17 7 9 1016.1 1016.1 0.0
26/09:00pm 27.6 25.6 8.5 30 10.4 SE 9 13 5 7 1016.2 1016.2 0.0
26/08:30pm 27.9 25.0 8.2 29 10.7 SE 13 17 7 9 1016.1 1016.1 0.0
26/08:00pm 28.5 25.7 7.1 26 11.4 SE 11 17 6 9 1015.9 1015.9 0.0
26/07:30pm 28.6 24.7 7.2 26 11.5 ESE 17 22 9 12 1015.6 1015.6 0.0
26/07:00pm 28.7 25.2 7.3 26 11.5 E 15 20 8 11 1015.3 1015.3 0.0
26/06:30pm 28.0 25.4 7.8 28 10.9 SE 11 15 6 8 1015.0 1015.0 0.0
26/06:00pm 29.0 24.7 7.0 25 11.8 ESE 19 24 10 13 1014.5 1014.5 0.0
26/05:30pm 30.4 25.3 4.2 19 13.5 ENE 20 30 11 16 1014.0 1014.0 0.0
26/05:00pm 30.7 25.7 4.4 19 13.6 ENE 20 28 11 15 1013.7 1013.7 0.0
26/04:30pm 31.0 26.0 4.7 19 13.7 NE 20 28 11 15 1013.4 1013.4 0.0
26/04:00pm 31.1 26.0 4.0 18 14.0 ENE 20 26 11 14 1013.2 1013.2 0.0
26/03:30pm 31.1 24.8 4.0 18 14.0 ENE 26 33 14 18 1013.1 1013.1 0.0
26/03:00pm 31.8 25.1 3.8 17 14.4 ENE 28 37 15 20 1012.8 1012.8 0.0
26/02:30pm 31.9 25.6 3.8 17 14.5 ENE 26 39 14 21 1012.9 1012.9 0.0
26/02:00pm 31.8 25.9 3.8 17 14.4 E 24 37 13 20 1012.9 1012.9 0.0
26/01:30pm 31.4 25.0 3.4 17 14.3 E 26 32 14 17 1013.4 1013.4 0.0
26/01:00pm 31.5 24.9 4.3 18 14.1 ENE 28 41 15 22 1013.7 1013.7 0.0
26/12:30pm 31.2 24.6 4.1 18 14.0 E 28 41 15 22 1013.9 1013.9 0.0
26/12:00pm 30.0 24.2 4.6 20 13.1 E 24 32 13 17 1014.4 1014.4 0.0
26/11:30am 29.6 22.6 4.3 20 13.0 E 30 39 16 21 1014.6 1014.6 0.0
26/11:00am 29.4 22.0 4.1 20 12.9 E 32 41 17 22 1015.0 1015.0 0.0
26/10:30am 28.6 21.7 4.8 22 12.2 E 30 41 16 22 1015.2 1015.2 0.0
26/10:00am 28.0 21.7 5.6 24 11.6 E 28 37 15 20 1015.5 1015.5 0.0
26/09:30am 27.2 20.9 5.5 25 11.2 E 28 39 15 21 1015.6 1015.6 0.0
26/09:00am 26.5 21.0 6.0 27 10.6 E 24 32 13 17 1015.4 1015.4 0.0
26/08:30am 26.1 21.0 6.2 28 10.3 E 22 30 12 16 1015.3 1015.3 0.0
26/08:00am 25.6 20.6 6.3 29 10.0 ESE 22 26 12 14 1015.1 1015.1 0.0
26/07:30am 25.3 20.7 6.5 30 9.8 ESE 20 28 11 15 1014.6 1014.6 0.0
26/07:00am 25.2 20.6 6.4 30 9.7 ESE 20 28 11 15 1014.3 1014.3 0.0
26/06:30am 25.2 20.7 6.9 31 9.6 ESE 20 28 11 15 1014.2 1014.2 0.0
26/06:00am 25.3 20.9 7.4 32 9.4 E 20 26 11 14 1014.1 1014.1 0.0
26/05:30am 25.4 21.2 7.5 32 9.5 E 19 24 10 13 1013.9 1013.9 0.0
26/05:00am 25.6 20.9 7.7 32 9.5 ESE 22 28 12 15 1013.6 1013.6 0.0
26/04:30am 25.6 21.4 8.1 33 9.4 ESE 20 28 11 15 1013.5 1013.5 0.0
26/04:00am 25.6 21.5 8.6 34 9.2 ESE 20 26 11 14 1013.4 1013.4 0.0
26/03:30am 25.4 21.7 9.3 36 8.8 E 19 24 10 13 1013.4 1013.4 0.0
26/03:00am 25.4 22.1 9.7 37 8.6 ESE 17 22 9 12 1013.5 1013.5 0.0
26/02:30am 25.4 22.1 9.7 37 8.6 ESE 17 20 9 11 1013.8 1013.8 0.0
26/02:00am 25.4 22.9 9.7 37 8.6 ESE 13 15 7 8 1013.9 1013.9 0.0
26/01:30am 25.6 22.9 10.2 38 8.5 ESE 15 17 8 9 1013.9 1013.9 0.0
26/01:00am 26.0 23.4 10.6 38 8.6 E 15 20 8 11 1014.0 1014.0 0.0
26/12:30am 25.9 24.1 10.9 39 8.4 E 11 15 6 8 1014.3 1014.3 0.0
26/12:00am 25.8 23.6 10.8 39 8.4 ESE 13 19 7 10 1014.3 1014.3 0.0
 
Date/Time
WST
Temp
°C
App
Temp
°C
Dew
Point
Rel
Hum
%
Delta-T
°C
Wind Press
QNH
hPa
Press
MSL
hPa
Rain
since 9 am
mm
Dir
 
Spd
km/h
Gust
km/h
Spd
kts
Gust
kts
25/11:30pm 26.1 22.7 10.7 38 8.6 ESE 19 24 10 13 1014.3 1014.3 0.0
25/11:00pm 26.6 23.6 10.7 37 8.9 ESE 17 24 9 13 1014.4 1014.4 0.0
25/10:30pm 27.2 24.4 10.0 34 9.6 E 15 19 8 10 1014.5 1014.5 0.0
25/10:00pm 27.7 24.0 9.5 32 10.1 E 19 24 10 13 1014.6 1014.6 0.0
25/09:30pm 28.2 24.4 9.9 32 10.2 E 20 26 11 14 1014.6 1014.6 0.0
25/09:00pm 28.4 24.9 10.1 32 10.3 E 19 26 10 14 1014.6 1014.6 0.0
25/08:30pm 28.5 25.9 10.7 33 10.1 E 15 20 8 11 1014.3 1014.3 0.0
25/08:00pm 28.9 25.9 10.6 32 10.4 E 17 22 9 12 1014.1 1014.1 0.0
25/07:30pm 28.7 26.0 10.4 32 10.3 E 15 20 8 11 1013.7 1013.7 0.0
25/07:00pm 29.0 26.0 10.6 32 10.5 E 17 20 9 11 1013.2 1013.2 0.0
25/06:30pm 29.5 26.9 10.6 31 10.8 E 15 20 8 11 1012.7 1012.7 0.0
25/06:00pm 30.3 26.3 10.3 29 11.4 E 22 28 12 15 1012.5 1012.5 0.0
25/05:30pm 31.0 26.2 10.4 28 11.8 ENE 26 32 14 17 1012.0 1012.0 0.0
25/05:00pm 31.3 26.2 10.6 28 11.9 ENE 28 37 15 20 1012.0 1012.0 0.0
25/04:30pm 31.6 27.0 10.9 28 12.0 ENE 26 35 14 19 1011.9 1011.9 0.0
25/04:00pm 31.8 26.8 11.0 28 12.1 NE 28 37 15 20 1011.5 1011.5 0.0
25/03:30pm 32.4 27.0 11.0 27 12.4 ENE 30 37 16 20 1011.3 1011.3 0.0
25/03:06pm 32.6 27.5 10.6 26 12.7 E 28 46 15 25 1011.2 1011.2 0.0
25/03:00pm 32.1 27.3 10.2 26 12.6 ENE 26 39 14 21 1011.3 1011.3 0.0
25/02:30pm 32.0 27.1 10.1 26 12.5 ENE 26 35 14 19 1011.3 1011.3 0.0
25/02:00pm 32.6 27.5 10.6 26 12.7 NE 28 37 15 20 1011.4 1011.4 0.0
25/01:30pm 32.4 27.6 10.4 26 12.7 ENE 26 41 14 22 1011.8 1011.8 0.0
25/01:00pm 32.4 27.2 10.4 26 12.7 ENE 28 37 15 20 1012.0 1012.0 0.0
25/12:30pm 31.9 26.4 10.6 27 12.3 ENE 30 39 16 21 1012.4 1012.4 0.0
25/12:00pm 31.2 24.8 9.4 26 12.3 ENE 33 43 18 23 1012.8 1012.8 0.0
25/11:30am 30.6 24.2 9.5 27 11.9 ENE 33 46 18 25 1013.1 1013.1 0.0
25/11:00am 29.7 23.1 8.7 27 11.6 ENE 33 44 18 24 1013.7 1013.7 0.0
25/10:30am 29.8 23.3 8.2 26 11.8 E 32 44 17 24 1013.7 1013.7 0.0
25/10:00am 29.5 22.9 8.5 27 11.6 E 33 46 18 25 1013.9 1013.9 0.0
25/09:30am 28.5 21.4 8.2 28 11.1 E 35 46 19 25 1013.9 1013.9 0.0
25/09:00am 27.4 21.8 8.8 31 10.2 E 28 37 15 20 1013.8 1013.8 0.0
25/08:30am 26.0 20.4 8.9 34 9.3 E 28 39 15 21 1013.7 1013.7 0.0
25/08:00am 24.9 19.4 9.2 37 8.5 E 28 35 15 19 1013.5 1013.5 0.0
25/07:30am 24.0 20.1 9.6 40 7.8 E 20 28 11 15 1013.4 1013.4 0.0
25/07:00am 23.0 20.2 10.1 44 7.1 ESE 15 19 8 10 1013.1 1013.1 0.0
25/06:30am 22.5 19.9 10.6 47 6.5 ESE 15 19 8 10 1012.6 1012.6 0.0
25/06:00am 23.1 20.4 10.5 45 6.9 ESE 15 19 8 10 1012.2 1012.2 0.0
25/05:30am 24.1 21.1 10.7 43 7.4 ESE 17 22 9 12 1012.0 1012.0 0.0
25/05:00am 24.2 22.1 11.2 44 7.3 ESE 13 19 7 10 1011.8 1011.8 0.0
25/04:30am 24.3 22.2 11.3 44 7.3 ESE 13 17 7 9 1011.7 1011.7 0.0
25/04:00am 24.7 22.9 12.0 45 7.2 ESE 13 15 7 8 1011.8 1011.8 0.0
25/03:30am 25.5 23.2 11.7 42 7.9 ESE 15 20 8 11 1011.8 1011.8 0.0
25/03:00am 25.1 23.7 12.3 45 7.3 ESE 11 15 6 8 1011.9 1011.9 0.0
25/02:30am 24.8 23.9 12.7 47 7.0 ESE 9 13 5 7 1011.9 1011.9 0.0
25/02:00am 24.4 23.6 13.0 49 6.6 ESE 9 11 5 6 1012.2 1012.2 0.0
25/01:30am 23.9 23.6 13.2 51 6.2 ESE 7 9 4 5 1012.3 1012.3 0.0
25/01:00am 23.5 22.9 13.4 53 5.9 ESE 9 11 5 6 1012.5 1012.5 0.0
25/12:30am 24.1 23.0 13.0 50 6.4 ESE 11 15 6 8 1012.6 1012.6 0.0
25/12:00am 24.2 23.2 13.4 51 6.3 ESE 11 13 6 7 1012.7 1012.7 0.0
 
Date/Time
WST
Temp
°C
App
Temp
°C
Dew
Point
Rel
Hum
%
Delta-T
°C
Wind Press
QNH
hPa
Press
MSL
hPa
Rain
since 9 am
mm
Dir
 
Spd
km/h
Gust
km/h
Spd
kts
Gust
kts
24/11:30pm 24.2 23.2 13.4 51 6.3 E 11 13 6 7 1013.0 1013.0 0.0
24/11:00pm 24.5 23.5 13.4 50 6.5 E 11 13 6 7 1013.2 1013.2 0.0
24/10:30pm 25.0 23.6 13.5 48 6.7 ESE 13 19 7 10 1013.4 1013.4 0.0
24/10:00pm 25.5 23.4 13.7 48 6.9 ESE 17 22 9 12 1013.6 1013.6 0.0
24/09:30pm 25.9 23.5 13.7 47 7.2 E 19 28 10 15 1013.4 1013.4 0.0
24/09:00pm 26.4 23.5 13.9 46 7.4 E 22 28 12 15 1013.4 1013.4 0.0
24/08:30pm 26.9 23.2 14.0 45 7.7 E 26 35 14 19 1013.0 1013.0 0.0
24/08:00pm 27.5 23.8 13.8 43 8.1 E 26 32 14 17 1012.7 1012.7 0.0
24/07:30pm 27.9 26.5 14.5 44 8.1 ESE 15 20 8 11 1012.5 1012.5 0.0
24/07:00pm 28.6 27.8 14.1 41 8.7 ESE 11 15 6 8 1012.1 1012.1 0.0
24/06:30pm 29.2 27.2 13.8 39 9.2 ESE 17 22 9 12 1011.9 1011.9 0.0
24/06:00pm 29.5 27.0 14.1 39 9.3 E 20 26 11 14 1011.7 1011.7 0.0
24/05:30pm 30.0 27.5 14.1 37 9.6 ESE 20 26 11 14 1011.4 1011.4 0.0
24/05:00pm 30.4 28.5 14.1 37 9.9 ESE 17 24 9 13 1011.2 1011.2 0.0
24/04:30pm 30.5 28.8 13.7 35 10.1 E 15 22 8 12 1011.1 1011.1 0.0
24/04:00pm 30.4 28.9 14.1 37 9.9 ENE 15 22 8 12 1011.1 1011.1 0.0
24/03:30pm 30.5 28.6 14.2 37 9.9 ENE 17 24 9 13 1011.1 1011.1 0.0
24/03:00pm 30.5 29.4 14.2 37 9.9 ENE 13 20 7 11 1011.1 1011.1 0.0
24/02:30pm 30.5 28.6 14.2 37 9.9 ENE 17 24 9 13 1011.1 1011.1 0.0
24/02:00pm 29.9 27.8 13.6 36 9.8 ENE 17 24 9 13 1011.2 1011.2 0.0
24/01:30pm 30.5 28.4 14.6 38 9.7 ENE 19 33 10 18 1011.5 1011.5 0.0
24/01:00pm 30.2 28.3 14.3 38 9.6 E 17 32 9 17 1011.9 1011.9 0.0
24/12:30pm 28.9 26.5 13.9 39 9.0 E 19 26 10 14 1012.3 1012.3 0.0
24/12:00pm 28.8 26.7 14.6 42 8.6 E 19 28 10 15 1012.6 1012.6 0.0
24/11:30am 28.7 26.4 14.1 40 8.8 E 19 28 10 15 1012.8 1012.8 0.0
24/11:00am 27.7 25.0 12.9 40 8.7 E 19 33 10 18 1013.1 1013.1 0.0
24/10:30am 27.8 24.2 13.0 40 8.7 E 24 33 13 18 1013.4 1013.4 0.0
24/10:00am 26.4 22.6 12.5 42 8.0 ESE 24 35 13 19 1013.6 1013.6 0.0
24/09:30am 25.5 20.8 12.0 43 7.7 ESE 28 35 15 19 1013.7 1013.7 0.0
24/09:00am 25.5 20.8 12.0 43 7.7 ESE 28 39 15 21 1013.8 1013.8 0.0
24/08:30am 24.2 19.9 11.9 46 7.0 ESE 26 33 14 18 1014.0 1014.0 0.0
24/08:00am 23.1 19.9 11.8 49 6.4 ESE 20 28 11 15 1013.9 1013.9 0.0
24/07:30am 22.6 20.1 12.3 52 5.8 ESE 17 22 9 12 1013.7 1013.7 0.0
24/07:00am 21.7 19.6 12.5 56 5.2 ESE 15 19 8 10 1013.4 1013.4 0.0
24/06:30am 21.6 18.8 12.7 57 5.1 ESE 19 24 10 13 1013.0 1013.0 0.0
24/06:00am 21.9 19.2 13.0 57 5.1 ESE 19 28 10 15 1012.7 1012.7 0.0
24/05:30am 22.2 18.5 12.7 55 5.4 ESE 24 35 13 19 1012.4 1012.4 0.0
24/05:00am 22.3 19.1 13.1 56 5.3 ESE 22 30 12 16 1012.4 1012.4 0.0
24/04:30am 22.2 19.7 13.5 57 5.0 ESE 19 26 10 14 1012.5 1012.5 0.0
24/04:00am 22.1 19.6 13.5 58 5.0 ESE 19 24 10 13 1012.7 1012.7 0.0
24/03:30am 21.4 20.6 14.1 63 4.2 ESE 11 15 6 8 1012.9 1012.9 0.0
24/03:00am 21.5 20.8 14.2 63 4.3 ESE 11 13 6 7 1013.0 1013.0 0.0
24/02:30am 22.1 21.1 14.7 63 4.4 ESE 13 17 7 9 1012.8 1012.8 0.0
24/02:00am 21.7 21.3 15.1 66 3.9 ESE 11 13 6 7 1012.8 1012.8 0.0
24/01:30am 21.4 21.7 15.9 71 3.3 ESE 9 11 5 6 1012.9 1012.9 0.0
24/01:00am 22.0 21.6 16.3 70 3.5 ESE 13 17 7 9 1013.0 1013.0 0.0
24/12:30am 21.0 22.2 17.4 80 2.2 SE 7 11 4 6 1013.2 1013.2 0.0
24/12:00am 21.2 22.0 17.4 79 2.3 SE 9 11 5 6 1013.0 1013.0 0.0

Other Formats:

Comma delimited format used in spreadsheet applications
http://www.bom.gov.au/fwo/IDW60801/IDW60801.94306.axf

JavaScript Object Notation format (JSON) in row-major order
http://www.bom.gov.au/fwo/IDW60801/IDW60801.94306.json